sensor_id;sensor_type;location;lat;lon;timestamp;P1;durP1;ratioP1;P2;durP2;ratioP2
58306;SDS011;44116;50.884;4.768;2023-05-18T00:02:22;11.5;;;3.5;;
58306;SDS011;44116;50.884;4.768;2023-05-18T00:04:22;10.7;;;3.6;;
58306;SDS011;44116;50.884;4.768;2023-05-18T00:08:21;13.6;;;4.1;;
58306;SDS011;44116;50.884;4.768;2023-05-18T00:10:21;7.5;;;3.2;;
58306;SDS011;44116;50.884;4.768;2023-05-18T00:12:20;12.3;;;4.1;;
58306;SDS011;44116;50.884;4.768;2023-05-18T00:14:20;10.5;;;3.9;;
58306;SDS011;44116;50.884;4.768;2023-05-18T00:16:20;12.6;;;4.0;;
58306;SDS011;44116;50.884;4.768;2023-05-18T00:18:19;11.4;;;3.5;;
58306;SDS011;44116;50.884;4.768;2023-05-18T00:20:19;9.4;;;3.3;;
58306;SDS011;44116;50.884;4.768;2023-05-18T00:22:19;12.2;;;4.2;;
58306;SDS011;44116;50.884;4.768;2023-05-18T00:24:19;12.9;;;3.8;;
58306;SDS011;44116;50.884;4.768;2023-05-18T00:26:18;9.0;;;3.4;;
58306;SDS011;44116;50.884;4.768;2023-05-18T00:28:18;11.1;;;3.5;;
58306;SDS011;44116;50.884;4.768;2023-05-18T00:30:18;10.0;;;3.7;;
58306;SDS011;44116;50.884;4.768;2023-05-18T00:32:17;8.0;;;3.6;;
58306;SDS011;44116;50.884;4.768;2023-05-18T00:34:17;13.5;;;3.8;;
58306;SDS011;44116;50.884;4.768;2023-05-18T00:36:16;11.9;;;3.5;;
58306;SDS011;44116;50.884;4.768;2023-05-18T00:40:16;11.2;;;3.6;;
58306;SDS011;44116;50.884;4.768;2023-05-18T00:42:15;8.3;;;3.4;;
58306;SDS011;44116;50.884;4.768;2023-05-18T00:44:15;9.1;;;3.2;;
58306;SDS011;44116;50.884;4.768;2023-05-18T00:46:15;8.3;;;3.3;;
58306;SDS011;44116;50.884;4.768;2023-05-18T00:48:14;12.4;;;4.1;;
58306;SDS011;44116;50.884;4.768;2023-05-18T00:50:14;10.4;;;3.8;;
58306;SDS011;44116;50.884;4.768;2023-05-18T00:54:14;13.0;;;3.5;;
58306;SDS011;44116;50.884;4.768;2023-05-18T00:58:13;10.6;;;3.8;;
58306;SDS011;44116;50.884;4.768;2023-05-18T01:00:13;10.9;;;4.0;;
58306;SDS011;44116;50.884;4.768;2023-05-18T01:02:12;16.3;;;4.4;;
58306;SDS011;44116;50.884;4.768;2023-05-18T01:04:12;15.3;;;4.2;;
58306;SDS011;44116;50.884;4.768;2023-05-18T01:06:12;8.0;;;3.4;;
58306;SDS011;44116;50.884;4.768;2023-05-18T01:08:11;9.4;;;3.3;;
58306;SDS011;44116;50.884;4.768;2023-05-18T01:10:13;12.6;;;4.1;;
58306;SDS011;44116;50.884;4.768;2023-05-18T01:12:17;12.4;;;3.8;;
58306;SDS011;44116;50.884;4.768;2023-05-18T01:14:15;11.0;;;3.9;;
58306;SDS011;44116;50.884;4.768;2023-05-18T01:16:14;12.1;;;3.6;;
58306;SDS011;44116;50.884;4.768;2023-05-18T01:18:16;12.4;;;3.7;;
58306;SDS011;44116;50.884;4.768;2023-05-18T01:22:26;9.7;;;4.3;;
58306;SDS011;44116;50.884;4.768;2023-05-18T01:24:22;14.1;;;3.8;;
58306;SDS011;44116;50.884;4.768;2023-05-18T01:26:11;11.0;;;3.6;;
58306;SDS011;44116;50.884;4.768;2023-05-18T01:28:13;11.8;;;4.1;;
58306;SDS011;44116;50.884;4.768;2023-05-18T01:30:08;8.4;;;3.3;;
58306;SDS011;44116;50.884;4.768;2023-05-18T01:32:08;16.0;;;4.0;;
58306;SDS011;44116;50.884;4.768;2023-05-18T01:34:07;10.6;;;3.3;;
58306;SDS011;44116;50.884;4.768;2023-05-18T01:36:07;11.0;;;3.8;;
58306;SDS011;44116;50.884;4.768;2023-05-18T01:40:07;9.7;;;3.9;;
58306;SDS011;44116;50.884;4.768;2023-05-18T01:42:10;8.8;;;3.6;;
58306;SDS011;44116;50.884;4.768;2023-05-18T01:44:10;13.0;;;4.2;;
58306;SDS011;44116;50.884;4.768;2023-05-18T01:46:10;10.2;;;3.8;;
58306;SDS011;44116;50.884;4.768;2023-05-18T01:50:09;11.8;;;4.1;;
58306;SDS011;44116;50.884;4.768;2023-05-18T01:52:09;8.8;;;4.2;;
58306;SDS011;44116;50.884;4.768;2023-05-18T01:54:06;13.0;;;4.3;;
58306;SDS011;44116;50.884;4.768;2023-05-18T01:56:06;11.3;;;3.8;;
58306;SDS011;44116;50.884;4.768;2023-05-18T01:58:05;19.6;;;4.6;;
58306;SDS011;44116;50.884;4.768;2023-05-18T02:00:05;8.1;;;3.5;;
58306;SDS011;44116;50.884;4.768;2023-05-18T02:02:02;11.9;;;3.8;;
58306;SDS011;44116;50.884;4.768;2023-05-18T02:06:02;12.4;;;4.2;;
58306;SDS011;44116;50.884;4.768;2023-05-18T02:08:01;13.3;;;4.0;;
58306;SDS011;44116;50.884;4.768;2023-05-18T02:10:01;14.8;;;4.7;;
58306;SDS011;44116;50.884;4.768;2023-05-18T02:12:01;10.6;;;4.2;;
58306;SDS011;44116;50.884;4.768;2023-05-18T02:14:00;12.9;;;4.0;;
58306;SDS011;44116;50.884;4.768;2023-05-18T02:16:02;13.0;;;4.6;;
58306;SDS011;44116;50.884;4.768;2023-05-18T02:18:00;10.3;;;3.8;;
58306;SDS011;44116;50.884;4.768;2023-05-18T02:19:59;13.5;;;4.3;;
58306;SDS011;44116;50.884;4.768;2023-05-18T02:21:59;15.2;;;4.5;;
58306;SDS011;44116;50.884;4.768;2023-05-18T02:25:59;10.5;;;3.9;;
58306;SDS011;44116;50.884;4.768;2023-05-18T02:27:58;12.9;;;4.8;;
58306;SDS011;44116;50.884;4.768;2023-05-18T02:29:58;12.4;;;4.6;;
58306;SDS011;44116;50.884;4.768;2023-05-18T02:31:57;11.8;;;4.5;;
58306;SDS011;44116;50.884;4.768;2023-05-18T02:33:57;12.6;;;4.0;;
58306;SDS011;44116;50.884;4.768;2023-05-18T02:35:56;14.3;;;4.3;;
58306;SDS011;44116;50.884;4.768;2023-05-18T02:37:56;13.6;;;4.6;;
58306;SDS011;44116;50.884;4.768;2023-05-18T02:39:56;12.4;;;3.9;;
58306;SDS011;44116;50.884;4.768;2023-05-18T02:41:55;19.5;;;5.3;;
58306;SDS011;44116;50.884;4.768;2023-05-18T02:43:55;10.6;;;4.0;;
58306;SDS011;44116;50.884;4.768;2023-05-18T02:45:55;9.9;;;4.1;;
58306;SDS011;44116;50.884;4.768;2023-05-18T02:47:54;10.8;;;3.9;;
58306;SDS011;44116;50.884;4.768;2023-05-18T02:49:54;24.7;;;4.7;;
58306;SDS011;44116;50.884;4.768;2023-05-18T02:51:54;9.5;;;4.1;;
58306;SDS011;44116;50.884;4.768;2023-05-18T02:53:53;12.7;;;4.9;;
58306;SDS011;44116;50.884;4.768;2023-05-18T02:55:53;13.8;;;3.9;;
58306;SDS011;44116;50.884;4.768;2023-05-18T02:57:53;11.1;;;4.0;;
58306;SDS011;44116;50.884;4.768;2023-05-18T02:59:52;12.9;;;4.3;;
58306;SDS011;44116;50.884;4.768;2023-05-18T03:01:52;11.5;;;4.1;;
58306;SDS011;44116;50.884;4.768;2023-05-18T03:03:52;12.6;;;4.0;;
58306;SDS011;44116;50.884;4.768;2023-05-18T03:05:52;10.0;;;3.9;;
58306;SDS011;44116;50.884;4.768;2023-05-18T03:07:52;11.3;;;4.0;;
58306;SDS011;44116;50.884;4.768;2023-05-18T03:09:51;13.0;;;4.6;;
58306;SDS011;44116;50.884;4.768;2023-05-18T03:11:50;13.0;;;4.3;;
58306;SDS011;44116;50.884;4.768;2023-05-18T03:13:50;9.8;;;4.4;;
58306;SDS011;44116;50.884;4.768;2023-05-18T03:15:50;14.8;;;4.9;;
58306;SDS011;44116;50.884;4.768;2023-05-18T03:17:49;10.3;;;4.8;;
58306;SDS011;44116;50.884;4.768;2023-05-18T03:19:49;11.6;;;4.1;;
58306;SDS011;44116;50.884;4.768;2023-05-18T03:21:48;17.5;;;5.0;;
58306;SDS011;44116;50.884;4.768;2023-05-18T03:23:48;14.3;;;4.9;;
58306;SDS011;44116;50.884;4.768;2023-05-18T03:25:48;11.2;;;4.7;;
58306;SDS011;44116;50.884;4.768;2023-05-18T03:27:47;11.3;;;4.3;;
58306;SDS011;44116;50.884;4.768;2023-05-18T03:29:47;12.8;;;4.5;;
58306;SDS011;44116;50.884;4.768;2023-05-18T03:31:47;14.4;;;4.9;;
58306;SDS011;44116;50.884;4.768;2023-05-18T03:33:46;9.7;;;4.3;;
58306;SDS011;44116;50.884;4.768;2023-05-18T03:35:47;14.6;;;5.2;;
58306;SDS011;44116;50.884;4.768;2023-05-18T03:37:46;13.3;;;4.7;;
58306;SDS011;44116;50.884;4.768;2023-05-18T03:39:45;13.0;;;5.2;;
58306;SDS011;44116;50.884;4.768;2023-05-18T03:41:45;12.9;;;4.7;;
58306;SDS011;44116;50.884;4.768;2023-05-18T03:43:45;9.9;;;4.5;;
58306;SDS011;44116;50.884;4.768;2023-05-18T03:45:44;11.5;;;4.9;;
58306;SDS011;44116;50.884;4.768;2023-05-18T03:47:44;13.3;;;4.8;;
58306;SDS011;44116;50.884;4.768;2023-05-18T03:49:44;14.9;;;5.1;;
58306;SDS011;44116;50.884;4.768;2023-05-18T03:53:43;12.0;;;4.6;;
58306;SDS011;44116;50.884;4.768;2023-05-18T03:55:42;13.2;;;4.9;;
58306;SDS011;44116;50.884;4.768;2023-05-18T03:57:42;11.9;;;4.8;;
58306;SDS011;44116;50.884;4.768;2023-05-18T04:03:41;10.5;;;4.4;;
58306;SDS011;44116;50.884;4.768;2023-05-18T04:05:41;15.2;;;4.5;;
58306;SDS011;44116;50.884;4.768;2023-05-18T04:07:40;11.6;;;4.9;;
58306;SDS011;44116;50.884;4.768;2023-05-18T04:09:40;12.9;;;4.7;;
58306;SDS011;44116;50.884;4.768;2023-05-18T04:11:39;11.6;;;4.9;;
58306;SDS011;44116;50.884;4.768;2023-05-18T04:15:39;10.0;;;4.4;;
58306;SDS011;44116;50.884;4.768;2023-05-18T04:17:38;12.5;;;4.7;;
58306;SDS011;44116;50.884;4.768;2023-05-18T04:19:38;11.5;;;4.0;;
58306;SDS011;44116;50.884;4.768;2023-05-18T04:21:38;13.2;;;5.1;;
58306;SDS011;44116;50.884;4.768;2023-05-18T04:23:37;12.0;;;5.0;;
58306;SDS011;44116;50.884;4.768;2023-05-18T04:25:37;13.8;;;4.8;;
58306;SDS011;44116;50.884;4.768;2023-05-18T04:27:37;10.6;;;4.6;;
58306;SDS011;44116;50.884;4.768;2023-05-18T04:29:36;13.9;;;4.5;;
58306;SDS011;44116;50.884;4.768;2023-05-18T04:31:36;13.0;;;4.9;;
58306;SDS011;44116;50.884;4.768;2023-05-18T04:33:35;10.4;;;4.2;;
58306;SDS011;44116;50.884;4.768;2023-05-18T04:35:35;15.0;;;5.3;;
58306;SDS011;44116;50.884;4.768;2023-05-18T04:37:35;13.5;;;5.5;;
58306;SDS011;44116;50.884;4.768;2023-05-18T04:39:34;12.9;;;5.2;;
58306;SDS011;44116;50.884;4.768;2023-05-18T04:41:34;12.9;;;4.7;;
58306;SDS011;44116;50.884;4.768;2023-05-18T04:43:34;13.0;;;5.3;;
58306;SDS011;44116;50.884;4.768;2023-05-18T04:45:33;12.5;;;5.4;;
58306;SDS011;44116;50.884;4.768;2023-05-18T04:47:33;12.5;;;5.8;;
58306;SDS011;44116;50.884;4.768;2023-05-18T04:49:32;16.9;;;5.6;;
58306;SDS011;44116;50.884;4.768;2023-05-18T04:51:32;15.0;;;5.5;;
58306;SDS011;44116;50.884;4.768;2023-05-18T04:55:32;14.9;;;5.8;;
58306;SDS011;44116;50.884;4.768;2023-05-18T04:57:31;16.9;;;6.9;;
58306;SDS011;44116;50.884;4.768;2023-05-18T04:59:31;17.1;;;5.9;;
58306;SDS011;44116;50.884;4.768;2023-05-18T05:01:31;15.5;;;5.7;;
58306;SDS011;44116;50.884;4.768;2023-05-18T05:03:30;15.1;;;5.4;;
58306;SDS011;44116;50.884;4.768;2023-05-18T05:05:30;14.1;;;5.3;;
58306;SDS011;44116;50.884;4.768;2023-05-18T05:07:29;14.2;;;5.1;;
58306;SDS011;44116;50.884;4.768;2023-05-18T05:09:29;15.2;;;5.5;;
58306;SDS011;44116;50.884;4.768;2023-05-18T05:11:29;15.4;;;5.7;;
58306;SDS011;44116;50.884;4.768;2023-05-18T05:15:28;14.7;;;5.6;;
58306;SDS011;44116;50.884;4.768;2023-05-18T05:17:28;16.0;;;5.8;;
58306;SDS011;44116;50.884;4.768;2023-05-18T05:19:27;16.3;;;5.3;;
58306;SDS011;44116;50.884;4.768;2023-05-18T05:21:27;14.2;;;5.8;;
58306;SDS011;44116;50.884;4.768;2023-05-18T05:23:27;13.6;;;5.3;;
58306;SDS011;44116;50.884;4.768;2023-05-18T05:25:26;17.0;;;5.7;;
58306;SDS011;44116;50.884;4.768;2023-05-18T05:29:25;14.3;;;5.5;;
58306;SDS011;44116;50.884;4.768;2023-05-18T05:31:25;13.4;;;5.3;;
58306;SDS011;44116;50.884;4.768;2023-05-18T05:35:24;16.3;;;6.1;;
58306;SDS011;44116;50.884;4.768;2023-05-18T05:37:24;12.0;;;5.8;;
58306;SDS011;44116;50.884;4.768;2023-05-18T05:39:24;17.2;;;5.7;;
58306;SDS011;44116;50.884;4.768;2023-05-18T05:41:23;16.1;;;6.1;;
58306;SDS011;44116;50.884;4.768;2023-05-18T05:43:23;15.3;;;6.2;;
58306;SDS011;44116;50.884;4.768;2023-05-18T05:45:23;15.0;;;5.4;;
58306;SDS011;44116;50.884;4.768;2023-05-18T05:47:22;15.3;;;5.8;;
58306;SDS011;44116;50.884;4.768;2023-05-18T05:53:21;15.8;;;5.7;;
58306;SDS011;44116;50.884;4.768;2023-05-18T05:55:21;14.8;;;6.1;;
58306;SDS011;44116;50.884;4.768;2023-05-18T05:57:21;18.2;;;6.9;;
58306;SDS011;44116;50.884;4.768;2023-05-18T05:59:20;14.9;;;6.2;;
58306;SDS011;44116;50.884;4.768;2023-05-18T06:01:20;18.1;;;6.3;;
58306;SDS011;44116;50.884;4.768;2023-05-18T06:03:19;15.1;;;6.6;;
58306;SDS011;44116;50.884;4.768;2023-05-18T06:05:19;17.9;;;6.1;;
58306;SDS011;44116;50.884;4.768;2023-05-18T06:07:19;18.9;;;6.3;;
58306;SDS011;44116;50.884;4.768;2023-05-18T06:09:18;13.7;;;6.0;;
58306;SDS011;44116;50.884;4.768;2023-05-18T06:11:18;14.4;;;5.8;;
58306;SDS011;44116;50.884;4.768;2023-05-18T06:13:18;14.4;;;6.7;;
58306;SDS011;44116;50.884;4.768;2023-05-18T06:15:18;15.4;;;5.7;;
58306;SDS011;44116;50.884;4.768;2023-05-18T06:17:17;13.1;;;6.0;;
58306;SDS011;44116;50.884;4.768;2023-05-18T06:19:17;14.4;;;5.9;;
58306;SDS011;44116;50.884;4.768;2023-05-18T06:21:17;12.9;;;6.2;;
58306;SDS011;44116;50.884;4.768;2023-05-18T06:23:16;17.0;;;6.8;;
58306;SDS011;44116;50.884;4.768;2023-05-18T06:25:16;16.5;;;5.9;;
58306;SDS011;44116;50.884;4.768;2023-05-18T06:27:15;13.5;;;5.7;;
58306;SDS011;44116;50.884;4.768;2023-05-18T06:29:15;14.1;;;6.3;;
58306;SDS011;44116;50.884;4.768;2023-05-18T06:31:15;15.4;;;5.9;;
58306;SDS011;44116;50.884;4.768;2023-05-18T06:33:15;14.5;;;6.3;;
58306;SDS011;44116;50.884;4.768;2023-05-18T06:35:14;13.9;;;5.9;;
58306;SDS011;44116;50.884;4.768;2023-05-18T06:37:14;14.9;;;6.0;;
58306;SDS011;44116;50.884;4.768;2023-05-18T06:39:13;15.9;;;5.7;;
58306;SDS011;44116;50.884;4.768;2023-05-18T06:41:13;13.1;;;5.9;;
58306;SDS011;44116;50.884;4.768;2023-05-18T06:43:13;12.0;;;5.6;;
58306;SDS011;44116;50.884;4.768;2023-05-18T06:45:12;14.0;;;6.0;;
58306;SDS011;44116;50.884;4.768;2023-05-18T06:47:12;14.9;;;5.9;;
58306;SDS011;44116;50.884;4.768;2023-05-18T06:49:12;13.9;;;6.0;;
58306;SDS011;44116;50.884;4.768;2023-05-18T06:51:11;14.8;;;5.9;;
58306;SDS011;44116;50.884;4.768;2023-05-18T06:53:11;13.5;;;6.1;;
58306;SDS011;44116;50.884;4.768;2023-05-18T06:55:11;15.7;;;6.6;;
58306;SDS011;44116;50.884;4.768;2023-05-18T06:59:10;15.1;;;6.1;;
58306;SDS011;44116;50.884;4.768;2023-05-18T07:03:10;12.2;;;5.7;;
58306;SDS011;44116;50.884;4.768;2023-05-18T07:05:10;13.2;;;7.1;;
58306;SDS011;44116;50.884;4.768;2023-05-18T07:07:09;15.2;;;6.2;;
58306;SDS011;44116;50.884;4.768;2023-05-18T07:11:09;16.6;;;6.8;;
58306;SDS011;44116;50.884;4.768;2023-05-18T07:13:08;13.4;;;5.7;;
58306;SDS011;44116;50.884;4.768;2023-05-18T07:15:09;12.9;;;6.4;;
58306;SDS011;44116;50.884;4.768;2023-05-18T07:17:08;11.5;;;6.3;;
58306;SDS011;44116;50.884;4.768;2023-05-18T07:19:07;14.8;;;6.6;;
58306;SDS011;44116;50.884;4.768;2023-05-18T07:21:07;15.9;;;6.4;;
58306;SDS011;44116;50.884;4.768;2023-05-18T07:23:07;14.4;;;6.5;;
58306;SDS011;44116;50.884;4.768;2023-05-18T07:25:07;15.2;;;6.3;;
58306;SDS011;44116;50.884;4.768;2023-05-18T07:27:06;17.6;;;6.8;;
58306;SDS011;44116;50.884;4.768;2023-05-18T07:29:06;14.7;;;6.3;;
58306;SDS011;44116;50.884;4.768;2023-05-18T07:31:06;16.9;;;7.1;;
58306;SDS011;44116;50.884;4.768;2023-05-18T07:33:05;17.3;;;7.0;;
58306;SDS011;44116;50.884;4.768;2023-05-18T07:35:05;13.9;;;6.5;;
58306;SDS011;44116;50.884;4.768;2023-05-18T07:37:05;14.3;;;6.4;;
58306;SDS011;44116;50.884;4.768;2023-05-18T07:39:05;14.9;;;6.6;;
58306;SDS011;44116;50.884;4.768;2023-05-18T07:41:04;16.1;;;7.1;;
58306;SDS011;44116;50.884;4.768;2023-05-18T07:43:04;13.6;;;6.4;;
58306;SDS011;44116;50.884;4.768;2023-05-18T07:45:05;14.8;;;6.5;;
58306;SDS011;44116;50.884;4.768;2023-05-18T07:47:04;13.0;;;6.3;;
58306;SDS011;44116;50.884;4.768;2023-05-18T07:49:03;16.2;;;7.3;;
58306;SDS011;44116;50.884;4.768;2023-05-18T07:51:03;18.5;;;7.1;;
58306;SDS011;44116;50.884;4.768;2023-05-18T07:53:02;14.6;;;6.6;;
58306;SDS011;44116;50.884;4.768;2023-05-18T07:55:02;16.9;;;6.7;;
58306;SDS011;44116;50.884;4.768;2023-05-18T07:57:02;17.5;;;7.1;;
58306;SDS011;44116;50.884;4.768;2023-05-18T07:59:02;12.6;;;6.6;;
58306;SDS011;44116;50.884;4.768;2023-05-18T08:03:01;14.6;;;6.7;;
58306;SDS011;44116;50.884;4.768;2023-05-18T08:05:01;15.6;;;7.1;;
58306;SDS011;44116;50.884;4.768;2023-05-18T08:07:01;13.7;;;6.3;;
58306;SDS011;44116;50.884;4.768;2023-05-18T08:09:00;15.9;;;7.4;;
58306;SDS011;44116;50.884;4.768;2023-05-18T08:11:00;15.4;;;7.1;;
58306;SDS011;44116;50.884;4.768;2023-05-18T08:14:59;14.1;;;6.6;;
58306;SDS011;44116;50.884;4.768;2023-05-18T08:16:59;14.2;;;6.3;;
58306;SDS011;44116;50.884;4.768;2023-05-18T08:19:01;16.1;;;6.9;;
58306;SDS011;44116;50.884;4.768;2023-05-18T08:20:59;13.8;;;6.7;;
58306;SDS011;44116;50.884;4.768;2023-05-18T08:22:58;14.2;;;6.3;;
58306;SDS011;44116;50.884;4.768;2023-05-18T08:24:58;15.5;;;6.6;;
58306;SDS011;44116;50.884;4.768;2023-05-18T08:26:58;15.3;;;6.9;;
58306;SDS011;44116;50.884;4.768;2023-05-18T08:28:58;13.7;;;6.5;;
58306;SDS011;44116;50.884;4.768;2023-05-18T08:30:57;17.8;;;6.8;;
58306;SDS011;44116;50.884;4.768;2023-05-18T08:32:57;15.3;;;5.9;;
58306;SDS011;44116;50.884;4.768;2023-05-18T08:34:57;15.0;;;6.1;;
58306;SDS011;44116;50.884;4.768;2023-05-18T08:36:57;15.8;;;6.4;;
58306;SDS011;44116;50.884;4.768;2023-05-18T08:38:56;15.6;;;6.1;;
58306;SDS011;44116;50.884;4.768;2023-05-18T08:41:01;11.6;;;5.8;;
58306;SDS011;44116;50.884;4.768;2023-05-18T08:43:02;14.8;;;5.4;;
58306;SDS011;44116;50.884;4.768;2023-05-18T08:45:01;15.6;;;6.2;;
58306;SDS011;44116;50.884;4.768;2023-05-18T08:48:57;14.7;;;5.8;;
58306;SDS011;44116;50.884;4.768;2023-05-18T08:50:57;10.4;;;5.4;;
58306;SDS011;44116;50.884;4.768;2023-05-18T08:52:59;15.5;;;6.9;;
58306;SDS011;44116;50.884;4.768;2023-05-18T08:54:56;14.9;;;6.1;;
58306;SDS011;44116;50.884;4.768;2023-05-18T08:56:55;12.3;;;6.3;;
58306;SDS011;44116;50.884;4.768;2023-05-18T08:58:55;15.2;;;6.1;;
58306;SDS011;44116;50.884;4.768;2023-05-18T09:00:54;12.6;;;5.6;;
58306;SDS011;44116;50.884;4.768;2023-05-18T09:02:54;11.7;;;5.5;;
58306;SDS011;44116;50.884;4.768;2023-05-18T09:04:55;16.2;;;5.7;;
58306;SDS011;44116;50.884;4.768;2023-05-18T09:06:53;12.0;;;4.9;;
58306;SDS011;44116;50.884;4.768;2023-05-18T09:08:54;12.1;;;4.8;;
58306;SDS011;44116;50.884;4.768;2023-05-18T09:10:55;13.2;;;4.9;;
58306;SDS011;44116;50.884;4.768;2023-05-18T09:12:53;15.5;;;5.2;;
58306;SDS011;44116;50.884;4.768;2023-05-18T09:14:53;11.8;;;5.1;;
58306;SDS011;44116;50.884;4.768;2023-05-18T09:16:52;12.8;;;5.4;;
58306;SDS011;44116;50.884;4.768;2023-05-18T09:18:52;13.5;;;5.6;;
58306;SDS011;44116;50.884;4.768;2023-05-18T09:20:51;11.2;;;4.5;;
58306;SDS011;44116;50.884;4.768;2023-05-18T09:22:51;10.8;;;4.7;;
58306;SDS011;44116;50.884;4.768;2023-05-18T09:24:51;12.5;;;4.5;;
58306;SDS011;44116;50.884;4.768;2023-05-18T09:26:51;13.3;;;4.6;;
58306;SDS011;44116;50.884;4.768;2023-05-18T09:28:52;12.5;;;5.2;;
58306;SDS011;44116;50.884;4.768;2023-05-18T09:30:50;13.5;;;4.5;;
58306;SDS011;44116;50.884;4.768;2023-05-18T09:32:51;11.5;;;4.6;;
58306;SDS011;44116;50.884;4.768;2023-05-18T09:34:50;11.8;;;4.2;;
58306;SDS011;44116;50.884;4.768;2023-05-18T09:38:50;12.7;;;4.3;;
58306;SDS011;44116;50.884;4.768;2023-05-18T09:40:49;10.2;;;3.8;;
58306;SDS011;44116;50.884;4.768;2023-05-18T09:42:49;14.8;;;4.9;;
58306;SDS011;44116;50.884;4.768;2023-05-18T09:44:48;9.7;;;3.7;;
58306;SDS011;44116;50.884;4.768;2023-05-18T09:46:54;11.7;;;4.2;;
58306;SDS011;44116;50.884;4.768;2023-05-18T09:48:50;13.1;;;4.4;;
58306;SDS011;44116;50.884;4.768;2023-05-18T09:50:48;13.1;;;4.5;;
58306;SDS011;44116;50.884;4.768;2023-05-18T09:54:52;10.8;;;3.9;;
58306;SDS011;44116;50.884;4.768;2023-05-18T09:56:48;13.3;;;4.4;;
58306;SDS011;44116;50.884;4.768;2023-05-18T09:58:47;13.3;;;4.0;;
58306;SDS011;44116;50.884;4.768;2023-05-18T10:00:48;11.3;;;4.1;;
58306;SDS011;44116;50.884;4.768;2023-05-18T10:02:48;10.2;;;3.7;;
58306;SDS011;44116;50.884;4.768;2023-05-18T10:04:46;10.8;;;3.9;;
58306;SDS011;44116;50.884;4.768;2023-05-18T10:06:47;13.4;;;3.6;;
58306;SDS011;44116;50.884;4.768;2023-05-18T10:08:46;11.1;;;4.3;;
58306;SDS011;44116;50.884;4.768;2023-05-18T10:10:48;10.5;;;4.0;;
58306;SDS011;44116;50.884;4.768;2023-05-18T10:12:45;13.2;;;3.7;;
58306;SDS011;44116;50.884;4.768;2023-05-18T10:14:45;14.3;;;3.6;;
58306;SDS011;44116;50.884;4.768;2023-05-18T10:16:45;12.8;;;4.1;;
58306;SDS011;44116;50.884;4.768;2023-05-18T10:18:46;10.5;;;3.7;;
58306;SDS011;44116;50.884;4.768;2023-05-18T10:20:45;11.1;;;4.1;;
58306;SDS011;44116;50.884;4.768;2023-05-18T10:22:45;12.5;;;3.6;;
58306;SDS011;44116;50.884;4.768;2023-05-18T10:24:49;13.5;;;4.3;;
58306;SDS011;44116;50.884;4.768;2023-05-18T10:26:46;9.1;;;3.6;;
58306;SDS011;44116;50.884;4.768;2023-05-18T10:28:44;10.5;;;4.3;;
58306;SDS011;44116;50.884;4.768;2023-05-18T10:30:43;10.4;;;4.1;;
58306;SDS011;44116;50.884;4.768;2023-05-18T10:32:44;11.1;;;4.0;;
58306;SDS011;44116;50.884;4.768;2023-05-18T10:36:43;13.1;;;4.3;;
58306;SDS011;44116;50.884;4.768;2023-05-18T10:38:43;12.6;;;4.7;;
58306;SDS011;44116;50.884;4.768;2023-05-18T10:40:43;12.3;;;4.6;;
58306;SDS011;44116;50.884;4.768;2023-05-18T10:42:44;9.9;;;5.0;;
58306;SDS011;44116;50.884;4.768;2023-05-18T10:44:43;12.0;;;4.5;;
58306;SDS011;44116;50.884;4.768;2023-05-18T10:46:42;13.5;;;4.7;;
58306;SDS011;44116;50.884;4.768;2023-05-18T10:48:44;10.4;;;4.4;;
58306;SDS011;44116;50.884;4.768;2023-05-18T10:50:41;14.7;;;4.9;;
58306;SDS011;44116;50.884;4.768;2023-05-18T10:52:43;10.4;;;4.7;;
58306;SDS011;44116;50.884;4.768;2023-05-18T10:54:42;10.0;;;4.3;;
58306;SDS011;44116;50.884;4.768;2023-05-18T10:56:43;12.6;;;4.6;;
58306;SDS011;44116;50.884;4.768;2023-05-18T10:58:41;13.5;;;5.1;;
58306;SDS011;44116;50.884;4.768;2023-05-18T11:02:41;11.7;;;4.8;;
58306;SDS011;44116;50.884;4.768;2023-05-18T11:04:40;12.1;;;4.9;;
58306;SDS011;44116;50.884;4.768;2023-05-18T11:06:40;11.4;;;4.6;;
58306;SDS011;44116;50.884;4.768;2023-05-18T11:10:43;14.4;;;4.7;;
58306;SDS011;44116;50.884;4.768;2023-05-18T11:12:40;10.4;;;4.9;;
58306;SDS011;44116;50.884;4.768;2023-05-18T11:14:46;10.4;;;4.3;;
58306;SDS011;44116;50.884;4.768;2023-05-18T11:16:40;13.7;;;4.5;;
58306;SDS011;44116;50.884;4.768;2023-05-18T11:18:41;13.4;;;4.4;;
58306;SDS011;44116;50.884;4.768;2023-05-18T11:20:38;14.1;;;4.9;;
58306;SDS011;44116;50.884;4.768;2023-05-18T11:22:44;8.3;;;4.2;;
58306;SDS011;44116;50.884;4.768;2023-05-18T11:26:39;12.3;;;4.6;;
58306;SDS011;44116;50.884;4.768;2023-05-18T11:28:41;11.6;;;4.4;;
58306;SDS011;44116;50.884;4.768;2023-05-18T11:30:47;8.9;;;4.0;;
58306;SDS011;44116;50.884;4.768;2023-05-18T11:32:37;12.0;;;4.2;;
58306;SDS011;44116;50.884;4.768;2023-05-18T11:34:41;12.0;;;4.8;;
58306;SDS011;44116;50.884;4.768;2023-05-18T11:36:43;13.4;;;4.5;;
58306;SDS011;44116;50.884;4.768;2023-05-18T11:38:51;12.2;;;4.7;;
58306;SDS011;44116;50.884;4.768;2023-05-18T11:40:45;15.9;;;4.6;;
58306;SDS011;44116;50.884;4.768;2023-05-18T11:42:37;11.6;;;4.4;;
58306;SDS011;44116;50.884;4.768;2023-05-18T11:44:37;9.7;;;4.9;;
58306;SDS011;44116;50.884;4.768;2023-05-18T11:46:37;11.5;;;4.8;;
58306;SDS011;44116;50.884;4.768;2023-05-18T11:50:36;12.1;;;5.0;;
58306;SDS011;44116;50.884;4.768;2023-05-18T11:52:44;14.4;;;5.2;;
58306;SDS011;44116;50.884;4.768;2023-05-18T11:54:39;12.3;;;5.3;;
58306;SDS011;44116;50.884;4.768;2023-05-18T11:56:36;13.0;;;5.6;;
58306;SDS011;44116;50.884;4.768;2023-05-18T11:58:35;15.2;;;5.7;;
58306;SDS011;44116;50.884;4.768;2023-05-18T12:02:35;12.5;;;5.3;;
58306;SDS011;44116;50.884;4.768;2023-05-18T12:04:39;12.1;;;5.6;;
58306;SDS011;44116;50.884;4.768;2023-05-18T12:06:35;13.7;;;5.5;;
58306;SDS011;44116;50.884;4.768;2023-05-18T12:08:35;10.9;;;5.0;;
58306;SDS011;44116;50.884;4.768;2023-05-18T12:10:35;12.3;;;5.5;;
58306;SDS011;44116;50.884;4.768;2023-05-18T12:12:34;13.0;;;5.8;;
58306;SDS011;44116;50.884;4.768;2023-05-18T12:14:35;12.2;;;5.4;;
58306;SDS011;44116;50.884;4.768;2023-05-18T12:18:34;13.5;;;5.7;;
58306;SDS011;44116;50.884;4.768;2023-05-18T12:20:37;12.6;;;6.2;;
58306;SDS011;44116;50.884;4.768;2023-05-18T12:22:34;13.7;;;5.7;;
58306;SDS011;44116;50.884;4.768;2023-05-18T12:24:33;14.4;;;6.1;;
58306;SDS011;44116;50.884;4.768;2023-05-18T12:26:33;12.0;;;5.6;;
58306;SDS011;44116;50.884;4.768;2023-05-18T12:28:33;15.5;;;5.7;;
58306;SDS011;44116;50.884;4.768;2023-05-18T12:30:33;10.7;;;5.8;;
58306;SDS011;44116;50.884;4.768;2023-05-18T12:34:32;11.3;;;5.9;;
58306;SDS011;44116;50.884;4.768;2023-05-18T12:36:32;10.3;;;6.1;;
58306;SDS011;44116;50.884;4.768;2023-05-18T12:40:35;10.9;;;6.7;;
58306;SDS011;44116;50.884;4.768;2023-05-18T12:42:32;11.0;;;6.1;;
58306;SDS011;44116;50.884;4.768;2023-05-18T12:44:32;12.7;;;6.5;;
58306;SDS011;44116;50.884;4.768;2023-05-18T12:46:31;10.7;;;6.4;;
58306;SDS011;44116;50.884;4.768;2023-05-18T12:50:31;11.2;;;5.6;;
58306;SDS011;44116;50.884;4.768;2023-05-18T12:52:31;10.9;;;6.2;;
58306;SDS011;44116;50.884;4.768;2023-05-18T12:54:31;12.9;;;6.6;;
58306;SDS011;44116;50.884;4.768;2023-05-18T12:56:48;16.0;;;6.5;;
58306;SDS011;44116;50.884;4.768;2023-05-18T12:58:30;13.2;;;6.2;;
58306;SDS011;44116;50.884;4.768;2023-05-18T13:00:31;11.2;;;5.9;;
58306;SDS011;44116;50.884;4.768;2023-05-18T13:02:32;14.5;;;6.5;;
58306;SDS011;44116;50.884;4.768;2023-05-18T13:04:31;10.7;;;5.6;;
58306;SDS011;44116;50.884;4.768;2023-05-18T13:06:30;12.0;;;5.9;;
58306;SDS011;44116;50.884;4.768;2023-05-18T13:08:30;14.3;;;5.8;;
58306;SDS011;44116;50.884;4.768;2023-05-18T13:10:30;12.0;;;5.4;;
58306;SDS011;44116;50.884;4.768;2023-05-18T13:12:38;11.2;;;5.3;;
58306;SDS011;44116;50.884;4.768;2023-05-18T13:16:30;10.5;;;5.2;;
58306;SDS011;44116;50.884;4.768;2023-05-18T13:20:31;12.3;;;5.4;;
58306;SDS011;44116;50.884;4.768;2023-05-18T13:22:29;12.8;;;5.0;;
58306;SDS011;44116;50.884;4.768;2023-05-18T13:24:29;11.4;;;5.3;;
58306;SDS011;44116;50.884;4.768;2023-05-18T13:26:29;11.8;;;4.8;;
58306;SDS011;44116;50.884;4.768;2023-05-18T13:28:28;11.9;;;4.9;;
58306;SDS011;44116;50.884;4.768;2023-05-18T13:32:28;11.7;;;4.7;;
58306;SDS011;44116;50.884;4.768;2023-05-18T13:34:28;10.3;;;4.6;;